sensor_id;sensor_type;location;lat;lon;timestamp;temperature;humidity
23143;DHT22;11740;51.168;4.112;2022-09-09T00:01:21;15.80;99.90
23143;DHT22;11740;51.168;4.112;2022-09-09T00:04:05;15.70;99.90
23143;DHT22;11740;51.168;4.112;2022-09-09T00:06:48;15.80;1.00
23143;DHT22;11740;51.168;4.112;2022-09-09T00:09:21;15.70;1.00
23143;DHT22;11740;51.168;4.112;2022-09-09T00:11:52;15.70;1.00
23143;DHT22;11740;51.168;4.112;2022-09-09T00:14:25;15.70;99.90
23143;DHT22;11740;51.168;4.112;2022-09-09T00:17:02;15.60;14.10
23143;DHT22;11740;51.168;4.112;2022-09-09T00:19:39;15.60;1.00
23143;DHT22;11740;51.168;4.112;2022-09-09T00:24:44;15.50;1.00
23143;DHT22;11740;51.168;4.112;2022-09-09T00:27:46;15.40;1.00
23143;DHT22;11740;51.168;4.112;2022-09-09T00:32:46;15.40;8.30
23143;DHT22;11740;51.168;4.112;2022-09-09T00:37:51;15.40;1.00
23143;DHT22;11740;51.168;4.112;2022-09-09T00:42:52;15.40;1.00
23143;DHT22;11740;51.168;4.112;2022-09-09T00:45:40;15.30;99.90
23143;DHT22;11740;51.168;4.112;2022-09-09T00:48:17;15.30;1.00
23143;DHT22;11740;51.168;4.112;2022-09-09T00:53:56;15.30;5.50
23143;DHT22;11740;51.168;4.112;2022-09-09T00:56:37;15.30;99.90
23143;DHT22;11740;51.168;4.112;2022-09-09T00:59:22;15.20;99.90
23143;DHT22;11740;51.168;4.112;2022-09-09T01:01:55;15.20;99.90
23143;DHT22;11740;51.168;4.112;2022-09-09T01:04:27;15.20;99.90
23143;DHT22;11740;51.168;4.112;2022-09-09T01:07:01;15.20;99.90
23143;DHT22;11740;51.168;4.112;2022-09-09T01:09:45;15.10;99.90
23143;DHT22;11740;51.168;4.112;2022-09-09T01:12:16;15.10;99.90
23143;DHT22;11740;51.168;4.112;2022-09-09T01:14:51;15.10;99.90
23143;DHT22;11740;51.168;4.112;2022-09-09T01:17:26;15.10;99.90
23143;DHT22;11740;51.168;4.112;2022-09-09T01:22:50;15.00;99.90
23143;DHT22;11740;51.168;4.112;2022-09-09T01:28:11;15.00;99.90
23143;DHT22;11740;51.168;4.112;2022-09-09T01:30:41;14.90;99.90
23143;DHT22;11740;51.168;4.112;2022-09-09T01:33:10;14.90;1.00
23143;DHT22;11740;51.168;4.112;2022-09-09T01:35:57;14.90;99.90
23143;DHT22;11740;51.168;4.112;2022-09-09T01:38:30;14.90;99.90
23143;DHT22;11740;51.168;4.112;2022-09-09T01:40:58;14.90;99.90
23143;DHT22;11740;51.168;4.112;2022-09-09T01:43:25;14.90;99.90
23143;DHT22;11740;51.168;4.112;2022-09-09T01:45:53;14.90;99.90
23143;DHT22;11740;51.168;4.112;2022-09-09T01:48:22;14.90;99.90
23143;DHT22;11740;51.168;4.112;2022-09-09T01:50:50;14.80;99.90
23143;DHT22;11740;51.168;4.112;2022-09-09T01:53:18;14.80;99.90
23143;DHT22;11740;51.168;4.112;2022-09-09T01:58:28;14.80;1.00
23143;DHT22;11740;51.168;4.112;2022-09-09T02:03:56;14.80;1.00
23143;DHT22;11740;51.168;4.112;2022-09-09T02:06:28;14.80;1.00
23143;DHT22;11740;51.168;4.112;2022-09-09T02:08:57;14.80;1.00
23143;DHT22;11740;51.168;4.112;2022-09-09T02:11:27;14.70;1.00
23143;DHT22;11740;51.168;4.112;2022-09-09T02:14:00;14.70;1.00
23143;DHT22;11740;51.168;4.112;2022-09-09T02:16:38;14.70;1.00
23143;DHT22;11740;51.168;4.112;2022-09-09T02:19:27;14.70;1.00
23143;DHT22;11740;51.168;4.112;2022-09-09T02:21:59;14.70;1.00
23143;DHT22;11740;51.168;4.112;2022-09-09T02:24:27;14.70;1.00
23143;DHT22;11740;51.168;4.112;2022-09-09T02:26:55;14.70;1.00
23143;DHT22;11740;51.168;4.112;2022-09-09T02:29:28;14.70;1.00
23143;DHT22;11740;51.168;4.112;2022-09-09T02:31:58;14.70;1.00
23143;DHT22;11740;51.168;4.112;2022-09-09T02:34:29;14.70;1.00
23143;DHT22;11740;51.168;4.112;2022-09-09T02:36:57;14.60;1.00
23143;DHT22;11740;51.168;4.112;2022-09-09T02:39:26;14.70;1.00
23143;DHT22;11740;51.168;4.112;2022-09-09T02:41:52;14.60;30.30
23143;DHT22;11740;51.168;4.112;2022-09-09T02:44:19;14.60;40.50
23143;DHT22;11740;51.168;4.112;2022-09-09T02:55:35;14.60;99.90
23143;DHT22;11740;51.168;4.112;2022-09-09T02:58:06;14.60;48.80
23143;DHT22;11740;51.168;4.112;2022-09-09T03:00:35;14.60;99.90
23143;DHT22;11740;51.168;4.112;2022-09-09T03:03:03;14.60;99.90
23143;DHT22;11740;51.168;4.112;2022-09-09T03:05:30;14.60;99.90
23143;DHT22;11740;51.168;4.112;2022-09-09T03:07:58;14.60;99.90
23143;DHT22;11740;51.168;4.112;2022-09-09T03:10:25;14.60;99.90
23143;DHT22;11740;51.168;4.112;2022-09-09T03:12:52;14.60;99.90
23143;DHT22;11740;51.168;4.112;2022-09-09T03:15:18;14.60;99.90
23143;DHT22;11740;51.168;4.112;2022-09-09T03:17:45;14.60;99.90
23143;DHT22;11740;51.168;4.112;2022-09-09T03:20:13;14.60;99.90
23143;DHT22;11740;51.168;4.112;2022-09-09T03:22:40;14.60;99.90
23143;DHT22;11740;51.168;4.112;2022-09-09T03:25:07;14.60;99.90
23143;DHT22;11740;51.168;4.112;2022-09-09T03:27:34;14.60;99.90
23143;DHT22;11740;51.168;4.112;2022-09-09T03:30:01;14.60;99.90
23143;DHT22;11740;51.168;4.112;2022-09-09T03:32:29;14.60;99.90
23143;DHT22;11740;51.168;4.112;2022-09-09T03:34:57;14.60;99.90
23143;DHT22;11740;51.168;4.112;2022-09-09T03:37:24;14.60;99.90
23143;DHT22;11740;51.168;4.112;2022-09-09T03:39:51;14.60;99.90
23143;DHT22;11740;51.168;4.112;2022-09-09T03:42:19;14.50;99.90
23143;DHT22;11740;51.168;4.112;2022-09-09T03:44:46;14.60;99.90
23143;DHT22;11740;51.168;4.112;2022-09-09T03:47:17;14.50;99.90
23143;DHT22;11740;51.168;4.112;2022-09-09T03:49:45;14.50;99.90
23143;DHT22;11740;51.168;4.112;2022-09-09T03:52:12;14.50;99.90
23143;DHT22;11740;51.168;4.112;2022-09-09T03:54:39;14.50;99.90
23143;DHT22;11740;51.168;4.112;2022-09-09T03:57:05;14.50;99.90
23143;DHT22;11740;51.168;4.112;2022-09-09T03:59:32;14.50;99.90
23143;DHT22;11740;51.168;4.112;2022-09-09T04:01:59;14.50;99.90
23143;DHT22;11740;51.168;4.112;2022-09-09T04:04:26;14.50;99.90
23143;DHT22;11740;51.168;4.112;2022-09-09T04:06:53;14.50;99.90
23143;DHT22;11740;51.168;4.112;2022-09-09T04:09:20;14.50;99.90
23143;DHT22;11740;51.168;4.112;2022-09-09T04:11:47;14.50;99.90
23143;DHT22;11740;51.168;4.112;2022-09-09T04:14:15;14.50;99.90
23143;DHT22;11740;51.168;4.112;2022-09-09T04:16:42;14.50;99.90
23143;DHT22;11740;51.168;4.112;2022-09-09T04:19:11;14.40;99.90
23143;DHT22;11740;51.168;4.112;2022-09-09T04:21:40;14.50;99.90
23143;DHT22;11740;51.168;4.112;2022-09-09T04:24:07;14.40;99.90
23143;DHT22;11740;51.168;4.112;2022-09-09T04:26:35;14.50;99.90
23143;DHT22;11740;51.168;4.112;2022-09-09T04:29:03;14.50;99.90
23143;DHT22;11740;51.168;4.112;2022-09-09T04:31:30;14.50;99.90
23143;DHT22;11740;51.168;4.112;2022-09-09T04:33:57;14.50;99.90
23143;DHT22;11740;51.168;4.112;2022-09-09T04:36:24;14.50;99.90
23143;DHT22;11740;51.168;4.112;2022-09-09T04:38:51;14.50;99.90
23143;DHT22;11740;51.168;4.112;2022-09-09T04:41:18;14.40;99.90
23143;DHT22;11740;51.168;4.112;2022-09-09T04:43:45;14.50;99.90
23143;DHT22;11740;51.168;4.112;2022-09-09T04:46:11;14.50;99.90
23143;DHT22;11740;51.168;4.112;2022-09-09T04:48:38;14.50;99.90
23143;DHT22;11740;51.168;4.112;2022-09-09T04:51:08;14.50;99.90
23143;DHT22;11740;51.168;4.112;2022-09-09T04:53:35;14.40;99.90
23143;DHT22;11740;51.168;4.112;2022-09-09T04:56:12;14.50;99.90
23143;DHT22;11740;51.168;4.112;2022-09-09T04:58:40;14.50;99.90
23143;DHT22;11740;51.168;4.112;2022-09-09T05:01:11;14.50;99.90
23143;DHT22;11740;51.168;4.112;2022-09-09T05:03:40;14.50;99.90
23143;DHT22;11740;51.168;4.112;2022-09-09T05:06:08;14.50;1.00
23143;DHT22;11740;51.168;4.112;2022-09-09T05:08:39;14.50;99.90
23143;DHT22;11740;51.168;4.112;2022-09-09T05:11:14;14.50;1.00
23143;DHT22;11740;51.168;4.112;2022-09-09T05:13:44;14.50;1.00
23143;DHT22;11740;51.168;4.112;2022-09-09T05:16:12;14.50;1.00
23143;DHT22;11740;51.168;4.112;2022-09-09T05:18:40;14.50;1.00
23143;DHT22;11740;51.168;4.112;2022-09-09T05:21:09;14.50;1.00
23143;DHT22;11740;51.168;4.112;2022-09-09T05:23:36;14.60;1.00
23143;DHT22;11740;51.168;4.112;2022-09-09T05:26:04;14.60;1.00
23143;DHT22;11740;51.168;4.112;2022-09-09T05:28:33;14.60;1.00
23143;DHT22;11740;51.168;4.112;2022-09-09T05:31:02;14.60;1.00
23143;DHT22;11740;51.168;4.112;2022-09-09T05:33:31;14.60;99.90
23143;DHT22;11740;51.168;4.112;2022-09-09T05:36:00;14.70;99.90
23143;DHT22;11740;51.168;4.112;2022-09-09T05:38:28;14.60;99.90
23143;DHT22;11740;51.168;4.112;2022-09-09T05:40:55;14.70;99.90
23143;DHT22;11740;51.168;4.112;2022-09-09T05:43:23;14.70;99.90
23143;DHT22;11740;51.168;4.112;2022-09-09T05:46:07;14.70;1.00
23143;DHT22;11740;51.168;4.112;2022-09-09T05:48:45;14.70;1.00
23143;DHT22;11740;51.168;4.112;2022-09-09T05:51:14;14.70;1.00
23143;DHT22;11740;51.168;4.112;2022-09-09T05:53:44;14.70;1.00
23143;DHT22;11740;51.168;4.112;2022-09-09T05:56:12;14.70;1.00
23143;DHT22;11740;51.168;4.112;2022-09-09T05:58:46;14.70;99.90
23143;DHT22;11740;51.168;4.112;2022-09-09T06:01:15;14.70;1.00
23143;DHT22;11740;51.168;4.112;2022-09-09T06:03:43;14.80;1.00
23143;DHT22;11740;51.168;4.112;2022-09-09T06:06:12;14.80;99.90
23143;DHT22;11740;51.168;4.112;2022-09-09T06:08:41;14.80;99.90
23143;DHT22;11740;51.168;4.112;2022-09-09T06:11:11;14.80;99.90
23143;DHT22;11740;51.168;4.112;2022-09-09T06:13:43;14.80;99.90
23143;DHT22;11740;51.168;4.112;2022-09-09T06:16:10;14.80;99.90
23143;DHT22;11740;51.168;4.112;2022-09-09T06:18:38;14.80;99.90
23143;DHT22;11740;51.168;4.112;2022-09-09T06:21:07;14.80;99.90
23143;DHT22;11740;51.168;4.112;2022-09-09T06:23:36;14.80;99.90
23143;DHT22;11740;51.168;4.112;2022-09-09T06:26:06;14.90;99.90
23143;DHT22;11740;51.168;4.112;2022-09-09T06:28:38;14.90;99.90
23143;DHT22;11740;51.168;4.112;2022-09-09T06:31:06;14.90;99.90
23143;DHT22;11740;51.168;4.112;2022-09-09T06:33:35;15.00;99.90
23143;DHT22;11740;51.168;4.112;2022-09-09T06:36:10;15.00;99.90
23143;DHT22;11740;51.168;4.112;2022-09-09T06:38:38;15.10;99.90
23143;DHT22;11740;51.168;4.112;2022-09-09T06:41:05;15.10;99.90
23143;DHT22;11740;51.168;4.112;2022-09-09T06:43:32;15.10;99.90
23143;DHT22;11740;51.168;4.112;2022-09-09T06:45:59;15.10;1.00
23143;DHT22;11740;51.168;4.112;2022-09-09T06:48:27;15.10;99.90
23143;DHT22;11740;51.168;4.112;2022-09-09T06:51:05;15.20;99.90
23143;DHT22;11740;51.168;4.112;2022-09-09T06:53:34;15.30;1.00
23143;DHT22;11740;51.168;4.112;2022-09-09T06:56:02;15.30;1.00
23143;DHT22;11740;51.168;4.112;2022-09-09T06:58:43;15.30;1.00
23143;DHT22;11740;51.168;4.112;2022-09-09T07:01:12;15.30;1.00
23143;DHT22;11740;51.168;4.112;2022-09-09T07:03:41;15.30;1.00
23143;DHT22;11740;51.168;4.112;2022-09-09T07:06:15;15.30;1.00
23143;DHT22;11740;51.168;4.112;2022-09-09T07:08:48;15.20;1.00
23143;DHT22;11740;51.168;4.112;2022-09-09T07:11:23;15.20;1.00
23143;DHT22;11740;51.168;4.112;2022-09-09T07:13:52;15.20;1.00
23143;DHT22;11740;51.168;4.112;2022-09-09T07:16:20;15.20;1.00
23143;DHT22;11740;51.168;4.112;2022-09-09T07:18:50;15.30;1.00
23143;DHT22;11740;51.168;4.112;2022-09-09T07:21:17;15.30;1.00
23143;DHT22;11740;51.168;4.112;2022-09-09T07:23:45;15.40;1.00
23143;DHT22;11740;51.168;4.112;2022-09-09T07:26:19;15.40;1.00
23143;DHT22;11740;51.168;4.112;2022-09-09T07:28:48;15.40;1.00
23143;DHT22;11740;51.168;4.112;2022-09-09T07:33:43;15.50;1.00
23143;DHT22;11740;51.168;4.112;2022-09-09T07:36:15;15.60;99.90
23143;DHT22;11740;51.168;4.112;2022-09-09T07:38:45;15.60;99.90
23143;DHT22;11740;51.168;4.112;2022-09-09T07:41:14;15.70;1.00
23143;DHT22;11740;51.168;4.112;2022-09-09T07:43:46;15.70;1.00
23143;DHT22;11740;51.168;4.112;2022-09-09T07:46:15;15.70;1.00
23143;DHT22;11740;51.168;4.112;2022-09-09T07:48:47;15.70;99.90
23143;DHT22;11740;51.168;4.112;2022-09-09T07:51:23;15.70;99.90
23143;DHT22;11740;51.168;4.112;2022-09-09T07:53:58;15.80;1.00
23143;DHT22;11740;51.168;4.112;2022-09-09T07:56:29;15.80;99.90
23143;DHT22;11740;51.168;4.112;2022-09-09T07:58:56;15.90;1.00
23143;DHT22;11740;51.168;4.112;2022-09-09T08:01:25;15.90;99.90
23143;DHT22;11740;51.168;4.112;2022-09-09T08:04:02;16.00;99.90
23143;DHT22;11740;51.168;4.112;2022-09-09T08:06:31;16.10;99.90
23143;DHT22;11740;51.168;4.112;2022-09-09T08:08:59;16.10;99.90
23143;DHT22;11740;51.168;4.112;2022-09-09T08:11:27;16.10;99.90
23143;DHT22;11740;51.168;4.112;2022-09-09T08:13:55;16.20;80.60
23143;DHT22;11740;51.168;4.112;2022-09-09T08:16:29;16.10;99.90
23143;DHT22;11740;51.168;4.112;2022-09-09T08:18:57;16.10;1.00
23143;DHT22;11740;51.168;4.112;2022-09-09T08:21:25;16.20;14.40
23143;DHT22;11740;51.168;4.112;2022-09-09T08:23:54;16.20;99.90
23143;DHT22;11740;51.168;4.112;2022-09-09T08:26:25;16.20;1.00
23143;DHT22;11740;51.168;4.112;2022-09-09T08:28:55;16.20;1.00
23143;DHT22;11740;51.168;4.112;2022-09-09T08:31:24;16.20;1.40
23143;DHT22;11740;51.168;4.112;2022-09-09T08:33:55;16.30;99.90
23143;DHT22;11740;51.168;4.112;2022-09-09T08:36:24;16.30;58.60
23143;DHT22;11740;51.168;4.112;2022-09-09T08:38:56;16.30;1.00
23143;DHT22;11740;51.168;4.112;2022-09-09T08:47:37;16.30;5.90
23143;DHT22;11740;51.168;4.112;2022-09-09T08:52:30;16.30;1.00
23143;DHT22;11740;51.168;4.112;2022-09-09T08:55:02;16.20;1.00
23143;DHT22;11740;51.168;4.112;2022-09-09T08:57:36;16.20;1.00
23143;DHT22;11740;51.168;4.112;2022-09-09T09:00:07;16.20;1.00
23143;DHT22;11740;51.168;4.112;2022-09-09T09:03:01;16.20;1.00
23143;DHT22;11740;51.168;4.112;2022-09-09T09:11:14;16.30;1.00
23143;DHT22;11740;51.168;4.112;2022-09-09T09:13:50;16.30;1.00
23143;DHT22;11740;51.168;4.112;2022-09-09T09:16:35;16.30;1.00
23143;DHT22;11740;51.168;4.112;2022-09-09T09:19:16;16.20;1.00
23143;DHT22;11740;51.168;4.112;2022-09-09T09:21:44;16.30;1.00
23143;DHT22;11740;51.168;4.112;2022-09-09T09:24:22;16.30;1.00
23143;DHT22;11740;51.168;4.112;2022-09-09T09:26:54;16.30;1.00
23143;DHT22;11740;51.168;4.112;2022-09-09T09:29:21;16.30;1.00
23143;DHT22;11740;51.168;4.112;2022-09-09T09:31:52;16.30;1.00
23143;DHT22;11740;51.168;4.112;2022-09-09T09:34:23;16.30;1.00
23143;DHT22;11740;51.168;4.112;2022-09-09T09:36:54;16.40;1.00
23143;DHT22;11740;51.168;4.112;2022-09-09T09:42:11;16.30;1.00
23143;DHT22;11740;51.168;4.112;2022-09-09T09:44:47;16.30;1.00
23143;DHT22;11740;51.168;4.112;2022-09-09T09:47:14;16.40;1.00
23143;DHT22;11740;51.168;4.112;2022-09-09T09:52:21;16.40;99.90
23143;DHT22;11740;51.168;4.112;2022-09-09T09:54:50;16.50;1.00
23143;DHT22;11740;51.168;4.112;2022-09-09T09:57:18;16.40;1.00
23143;DHT22;11740;51.168;4.112;2022-09-09T09:59:59;16.50;99.90
23143;DHT22;11740;51.168;4.112;2022-09-09T10:02:37;16.60;99.90
23143;DHT22;11740;51.168;4.112;2022-09-09T10:05:08;16.60;99.90
23143;DHT22;11740;51.168;4.112;2022-09-09T10:07:39;16.70;1.00
23143;DHT22;11740;51.168;4.112;2022-09-09T10:10:08;16.80;99.90
23143;DHT22;11740;51.168;4.112;2022-09-09T10:12:43;16.90;99.90
23143;DHT22;11740;51.168;4.112;2022-09-09T10:29:19;17.00;99.90
23143;DHT22;11740;51.168;4.112;2022-09-09T10:32:37;17.10;99.90
23143;DHT22;11740;51.168;4.112;2022-09-09T10:37:31;17.10;99.90
23143;DHT22;11740;51.168;4.112;2022-09-09T10:40:46;17.10;53.60
23143;DHT22;11740;51.168;4.112;2022-09-09T10:42:54;17.20;1.00
23143;DHT22;11740;51.168;4.112;2022-09-09T10:56:48;17.30;1.00
23143;DHT22;11740;51.168;4.112;2022-09-09T10:59:27;17.30;1.00
23143;DHT22;11740;51.168;4.112;2022-09-09T11:02:39;17.40;1.00
23143;DHT22;11740;51.168;4.112;2022-09-09T11:04:55;17.40;99.90
23143;DHT22;11740;51.168;4.112;2022-09-09T11:13:03;17.60;1.00
23143;DHT22;11740;51.168;4.112;2022-09-09T11:15:36;17.60;1.00
23143;DHT22;11740;51.168;4.112;2022-09-09T11:18:09;17.70;99.90
23143;DHT22;11740;51.168;4.112;2022-09-09T11:20:40;17.80;1.00
23143;DHT22;11740;51.168;4.112;2022-09-09T11:23:12;18.00;99.90
23143;DHT22;11740;51.168;4.112;2022-09-09T11:25:43;18.00;99.90
23143;DHT22;11740;51.168;4.112;2022-09-09T11:44:53;18.40;1.00
23143;DHT22;11740;51.168;4.112;2022-09-09T11:47:23;18.30;1.00
23143;DHT22;11740;51.168;4.112;2022-09-09T11:50:27;18.40;1.00
23143;DHT22;11740;51.168;4.112;2022-09-09T11:56:04;18.60;1.00
23143;DHT22;11740;51.168;4.112;2022-09-09T11:58:37;18.70;1.00
23143;DHT22;11740;51.168;4.112;2022-09-09T12:02:09;18.70;99.90
23143;DHT22;11740;51.168;4.112;2022-09-09T12:09:33;18.90;1.00
23143;DHT22;11740;51.168;4.112;2022-09-09T12:17:10;19.00;99.90
23143;DHT22;11740;51.168;4.112;2022-09-09T12:19:46;19.00;99.90
23143;DHT22;11740;51.168;4.112;2022-09-09T12:27:35;19.00;99.90
23143;DHT22;11740;51.168;4.112;2022-09-09T12:30:09;19.00;99.90
23143;DHT22;11740;51.168;4.112;2022-09-09T12:32:37;19.10;99.90
23143;DHT22;11740;51.168;4.112;2022-09-09T12:35:18;19.20;99.90
23143;DHT22;11740;51.168;4.112;2022-09-09T12:37:51;19.30;77.60
23143;DHT22;11740;51.168;4.112;2022-09-09T12:40:27;19.30;1.00
23143;DHT22;11740;51.168;4.112;2022-09-09T12:42:58;19.50;1.00
23143;DHT22;11740;51.168;4.112;2022-09-09T12:45:31;19.60;1.00
23143;DHT22;11740;51.168;4.112;2022-09-09T12:50:36;19.70;99.90
23143;DHT22;11740;51.168;4.112;2022-09-09T12:53:08;19.60;99.90
23143;DHT22;11740;51.168;4.112;2022-09-09T12:55:37;19.70;1.00
23143;DHT22;11740;51.168;4.112;2022-09-09T12:58:05;19.80;1.00
23143;DHT22;11740;51.168;4.112;2022-09-09T13:00:33;19.90;1.00
23143;DHT22;11740;51.168;4.112;2022-09-09T13:03:02;20.00;1.00
23143;DHT22;11740;51.168;4.112;2022-09-09T13:05:40;19.90;99.90
23143;DHT22;11740;51.168;4.112;2022-09-09T13:08:08;19.90;1.00
23143;DHT22;11740;51.168;4.112;2022-09-09T13:10:43;20.00;1.00
23143;DHT22;11740;51.168;4.112;2022-09-09T13:13:37;20.10;99.90
23143;DHT22;11740;51.168;4.112;2022-09-09T13:19:09;20.20;99.90
23143;DHT22;11740;51.168;4.112;2022-09-09T13:21:45;20.20;99.90
23143;DHT22;11740;51.168;4.112;2022-09-09T13:24:31;20.30;99.90
23143;DHT22;11740;51.168;4.112;2022-09-09T13:27:04;20.30;4.30
23143;DHT22;11740;51.168;4.112;2022-09-09T13:29:50;20.30;1.00
23143;DHT22;11740;51.168;4.112;2022-09-09T13:32:21;20.30;65.30
23143;DHT22;11740;51.168;4.112;2022-09-09T13:34:52;20.30;1.00
23143;DHT22;11740;51.168;4.112;2022-09-09T13:40:03;20.30;1.00
23143;DHT22;11740;51.168;4.112;2022-09-09T13:42:33;20.40;1.00
23143;DHT22;11740;51.168;4.112;2022-09-09T13:45:02;20.50;1.00
23143;DHT22;11740;51.168;4.112;2022-09-09T13:47:34;20.60;99.90
23143;DHT22;11740;51.168;4.112;2022-09-09T13:53:01;21.00;1.00
23143;DHT22;11740;51.168;4.112;2022-09-09T13:55:28;20.90;99.90
23143;DHT22;11740;51.168;4.112;2022-09-09T13:57:57;20.90;99.90
23143;DHT22;11740;51.168;4.112;2022-09-09T14:00:25;20.80;99.90
23143;DHT22;11740;51.168;4.112;2022-09-09T14:02:52;20.90;1.00
23143;DHT22;11740;51.168;4.112;2022-09-09T14:05:21;21.10;99.90
23143;DHT22;11740;51.168;4.112;2022-09-09T14:07:48;21.20;99.90
23143;DHT22;11740;51.168;4.112;2022-09-09T14:10:18;21.10;99.90
23143;DHT22;11740;51.168;4.112;2022-09-09T14:12:46;21.00;18.60
23143;DHT22;11740;51.168;4.112;2022-09-09T14:15:13;21.10;1.00
23143;DHT22;11740;51.168;4.112;2022-09-09T14:17:41;21.30;1.00
23143;DHT22;11740;51.168;4.112;2022-09-09T14:20:08;21.30;1.00
23143;DHT22;11740;51.168;4.112;2022-09-09T14:22:36;21.30;1.00
23143;DHT22;11740;51.168;4.112;2022-09-09T14:25:03;21.30;1.00
23143;DHT22;11740;51.168;4.112;2022-09-09T14:27:30;21.30;32.90
23143;DHT22;11740;51.168;4.112;2022-09-09T14:29:57;21.30;1.00
23143;DHT22;11740;51.168;4.112;2022-09-09T14:32:24;21.30;1.00
23143;DHT22;11740;51.168;4.112;2022-09-09T14:34:52;21.30;1.00
23143;DHT22;11740;51.168;4.112;2022-09-09T14:37:19;21.20;1.00
23143;DHT22;11740;51.168;4.112;2022-09-09T14:39:46;21.10;1.00
23143;DHT22;11740;51.168;4.112;2022-09-09T14:42:14;21.10;1.00
23143;DHT22;11740;51.168;4.112;2022-09-09T14:44:41;21.00;1.00
23143;DHT22;11740;51.168;4.112;2022-09-09T14:47:08;21.00;1.00
23143;DHT22;11740;51.168;4.112;2022-09-09T14:49:35;20.90;30.10
23143;DHT22;11740;51.168;4.112;2022-09-09T14:52:02;21.00;1.00
23143;DHT22;11740;51.168;4.112;2022-09-09T14:54:33;21.00;99.90
23143;DHT22;11740;51.168;4.112;2022-09-09T14:57:00;21.10;99.90
23143;DHT22;11740;51.168;4.112;2022-09-09T14:59:27;21.20;98.40
23143;DHT22;11740;51.168;4.112;2022-09-09T15:01:54;21.20;99.90
23143;DHT22;11740;51.168;4.112;2022-09-09T15:04:20;21.10;1.00
23143;DHT22;11740;51.168;4.112;2022-09-09T15:06:48;20.90;81.10
23143;DHT22;11740;51.168;4.112;2022-09-09T15:09:16;20.90;99.90
23143;DHT22;11740;51.168;4.112;2022-09-09T15:11:43;20.80;66.50
23143;DHT22;11740;51.168;4.112;2022-09-09T15:14:10;21.00;99.90
23143;DHT22;11740;51.168;4.112;2022-09-09T15:16:38;21.10;1.00
23143;DHT22;11740;51.168;4.112;2022-09-09T15:19:05;21.10;1.00
23143;DHT22;11740;51.168;4.112;2022-09-09T15:21:33;21.00;99.90
23143;DHT22;11740;51.168;4.112;2022-09-09T15:24:01;21.00;1.00
23143;DHT22;11740;51.168;4.112;2022-09-09T15:26:29;21.00;99.90
23143;DHT22;11740;51.168;4.112;2022-09-09T15:28:56;20.80;99.90
23143;DHT22;11740;51.168;4.112;2022-09-09T15:31:27;20.70;99.90
23143;DHT22;11740;51.168;4.112;2022-09-09T15:34:02;20.40;99.90
23143;DHT22;11740;51.168;4.112;2022-09-09T15:36:40;20.20;1.00
23143;DHT22;11740;51.168;4.112;2022-09-09T15:39:10;20.10;86.00
23143;DHT22;11740;51.168;4.112;2022-09-09T15:41:39;19.90;99.90
23143;DHT22;11740;51.168;4.112;2022-09-09T15:44:06;19.80;99.90
23143;DHT22;11740;51.168;4.112;2022-09-09T15:46:35;19.80;1.00
23143;DHT22;11740;51.168;4.112;2022-09-09T15:49:11;19.70;1.00
23143;DHT22;11740;51.168;4.112;2022-09-09T15:51:43;19.80;1.00
23143;DHT22;11740;51.168;4.112;2022-09-09T15:54:14;19.90;1.00
23143;DHT22;11740;51.168;4.112;2022-09-09T15:56:47;20.00;1.00
23143;DHT22;11740;51.168;4.112;2022-09-09T15:59:17;19.90;1.00
23143;DHT22;11740;51.168;4.112;2022-09-09T16:01:44;20.00;1.00
23143;DHT22;11740;51.168;4.112;2022-09-09T16:04:11;19.90;1.00
23143;DHT22;11740;51.168;4.112;2022-09-09T16:06:38;19.80;1.00
23143;DHT22;11740;51.168;4.112;2022-09-09T16:09:06;19.90;1.00
23143;DHT22;11740;51.168;4.112;2022-09-09T16:11:34;19.90;1.00
23143;DHT22;11740;51.168;4.112;2022-09-09T16:14:02;19.90;1.00
23143;DHT22;11740;51.168;4.112;2022-09-09T16:16:30;20.00;1.00
23143;DHT22;11740;51.168;4.112;2022-09-09T16:18:58;20.00;99.90
23143;DHT22;11740;51.168;4.112;2022-09-09T16:21:28;20.00;1.00
23143;DHT22;11740;51.168;4.112;2022-09-09T16:23:57;20.00;1.00
23143;DHT22;11740;51.168;4.112;2022-09-09T16:26:32;20.00;1.00
23143;DHT22;11740;51.168;4.112;2022-09-09T16:29:00;20.10;99.90
23143;DHT22;11740;51.168;4.112;2022-09-09T16:31:29;20.10;99.90
23143;DHT22;11740;51.168;4.112;2022-09-09T16:33:58;20.10;99.90
23143;DHT22;11740;51.168;4.112;2022-09-09T16:36:26;20.10;99.90
23143;DHT22;11740;51.168;4.112;2022-09-09T16:38:54;20.00;99.90
23143;DHT22;11740;51.168;4.112;2022-09-09T16:41:24;19.90;99.90
23143;DHT22;11740;51.168;4.112;2022-09-09T16:43:55;19.80;99.90
23143;DHT22;11740;51.168;4.112;2022-09-09T16:46:23;19.70;99.90
23143;DHT22;11740;51.168;4.112;2022-09-09T16:48:51;19.70;99.90
23143;DHT22;11740;51.168;4.112;2022-09-09T16:51:23;19.70;1.00
23143;DHT22;11740;51.168;4.112;2022-09-09T16:53:51;19.70;1.00
23143;DHT22;11740;51.168;4.112;2022-09-09T16:56:20;19.70;99.90
23143;DHT22;11740;51.168;4.112;2022-09-09T16:58:54;19.70;1.00
23143;DHT22;11740;51.168;4.112;2022-09-09T17:01:25;19.90;99.90
23143;DHT22;11740;51.168;4.112;2022-09-09T17:03:54;19.90;99.90
23143;DHT22;11740;51.168;4.112;2022-09-09T17:06:27;20.00;99.90
23143;DHT22;11740;51.168;4.112;2022-09-09T17:08:56;19.70;1.00
23143;DHT22;11740;51.168;4.112;2022-09-09T17:11:24;19.60;1.00
23143;DHT22;11740;51.168;4.112;2022-09-09T17:13:51;19.70;1.00
23143;DHT22;11740;51.168;4.112;2022-09-09T17:16:19;19.70;1.00
23143;DHT22;11740;51.168;4.112;2022-09-09T17:18:48;19.80;1.00
23143;DHT22;11740;51.168;4.112;2022-09-09T17:21:17;19.80;1.00
23143;DHT22;11740;51.168;4.112;2022-09-09T17:23:47;19.80;99.90
23143;DHT22;11740;51.168;4.112;2022-09-09T17:26:15;19.80;99.90
23143;DHT22;11740;51.168;4.112;2022-09-09T17:28:43;19.80;99.90
23143;DHT22;11740;51.168;4.112;2022-09-09T17:31:13;19.70;99.90
23143;DHT22;11740;51.168;4.112;2022-09-09T17:33:43;19.70;99.90
23143;DHT22;11740;51.168;4.112;2022-09-09T17:36:19;19.70;99.90
23143;DHT22;11740;51.168;4.112;2022-09-09T17:38:51;19.50;1.00
23143;DHT22;11740;51.168;4.112;2022-09-09T17:41:24;19.30;1.00
23143;DHT22;11740;51.168;4.112;2022-09-09T17:43:52;19.20;1.00
23143;DHT22;11740;51.168;4.112;2022-09-09T17:46:22;19.10;1.00
23143;DHT22;11740;51.168;4.112;2022-09-09T17:48:58;19.10;1.00
23143;DHT22;11740;51.168;4.112;2022-09-09T17:51:27;19.20;1.00
23143;DHT22;11740;51.168;4.112;2022-09-09T17:53:57;19.20;1.00
23143;DHT22;11740;51.168;4.112;2022-09-09T17:56:27;19.00;1.00
23143;DHT22;11740;51.168;4.112;2022-09-09T17:59:00;18.90;31.30
23143;DHT22;11740;51.168;4.112;2022-09-09T18:01:29;18.90;99.90
23143;DHT22;11740;51.168;4.112;2022-09-09T18:04:01;18.80;99.90
23143;DHT22;11740;51.168;4.112;2022-09-09T18:06:34;18.80;99.90
23143;DHT22;11740;51.168;4.112;2022-09-09T18:09:07;18.60;99.90
23143;DHT22;11740;51.168;4.112;2022-09-09T18:11:39;18.50;99.90
23143;DHT22;11740;51.168;4.112;2022-09-09T18:14:19;18.50;1.00
23143;DHT22;11740;51.168;4.112;2022-09-09T18:16:48;18.60;99.90